Time;durP1;ratioP1;P1;durP2;ratioP2;P2;SDS_P1;SDS_P2;PMS_P1;PMS_P2;Temp;Humidity;BMP_temperature;BMP_pressure;BME280_temperature;BME280_humidity;BME280_pressure;Samples;Min_cycle;Max_cycle;Signal;HPM_P1;HPM_P2
2022/05/24 00:00:12;;;;;;;8.98;8.07;;;;;;;;;;2057571;28;20185;-51
2022/05/24 00:01:13;;;;;;;9.02;8.13;;;;;;;;;;2057338;28;20190;-52
2022/05/24 00:02:13;;;;;;;11.23;8.88;;;;;;;;;;2064868;28;20602;-54
2022/05/24 00:03:13;;;;;;;8.20;7.50;;;;;;;;;;2064827;28;20173;-56
2022/05/24 00:04:14;;;;;;;9.38;8.52;;;;;;;;;;2063549;28;20213;-52
2022/05/24 00:05:14;;;;;;;9.50;8.60;;;;;;;;;;2065703;28;20217;-56
2022/05/24 00:06:15;;;;;;;9.65;8.85;;;;;;;;;;2066339;28;20200;-56
2022/05/24 00:07:15;;;;;;;9.15;8.35;;;;;;;;;;2066109;28;20170;-57
2022/05/24 00:08:16;;;;;;;7.90;7.13;;;;;;;;;;2065673;28;20197;-54
2022/05/24 00:09:20;;;;;;;7.25;6.68;;;;;;;;;;2057949;28;20171;-61
2022/05/24 00:10:23;;;;;;;7.80;7.07;;;;;;;;;;2058009;28;20506;-53
2022/05/24 00:11:24;;;;;;;8.30;6.85;;;;;;;;;;2057933;28;20213;-54
2022/05/24 00:12:25;;;;;;;8.45;7.68;;;;;;;;;;2058759;28;20261;-54
2022/05/24 00:13:25;;;;;;;8.20;7.57;;;;;;;;;;2057974;28;20159;-54
2022/05/24 00:15:44;;;;;;;8.20;7.40;;;;;;;;;;2058671;28;20189;-57
2022/05/24 00:16:45;;;;;;;8.57;7.78;;;;;;;;;;2058315;28;20635;-57
2022/05/24 00:17:52;;;;;;;9.07;8.30;;;;;;;;;;2065602;28;20247;-56
2022/05/24 00:18:53;;;;;;;8.50;7.78;;;;;;;;;;2065103;28;20174;-53
2022/05/24 00:19:53;;;;;;;9.80;8.05;;;;;;;;;;2058489;28;20161;-52
2022/05/24 00:20:55;;;;;;;11.05;8.00;;;;;;;;;;2065647;28;20208;-57
2022/05/24 00:21:55;;;;;;;9.13;8.25;;;;;;;;;;2065224;28;20209;-58
2022/05/24 00:22:56;;;;;;;9.57;8.60;;;;;;;;;;2058194;28;20170;-57
2022/05/24 00:23:56;;;;;;;11.60;8.60;;;;;;;;;;2058357;28;20172;-55
2022/05/24 00:25:01;;;;;;;10.23;9.23;;;;;;;;;;2065300;28;20297;-55
2022/05/24 00:26:03;;;;;;;9.18;8.27;;;;;;;;;;2065186;28;20178;-51
2022/05/24 00:27:03;;;;;;;8.38;7.68;;;;;;;;;;2059448;28;20170;-55
2022/05/24 00:28:04;;;;;;;8.68;7.85;;;;;;;;;;2061603;28;20170;-54
2022/05/24 00:29:04;;;;;;;9.80;8.85;;;;;;;;;;2071315;28;20203;-58
2022/05/24 00:30:05;;;;;;;10.88;9.77;;;;;;;;;;2074862;28;20207;-53
2022/05/24 00:31:05;;;;;;;12.82;9.55;;;;;;;;;;2074929;28;20181;-54
2022/05/24 00:32:06;;;;;;;10.00;9.10;;;;;;;;;;2074428;28;20165;-55
2022/05/24 00:33:06;;;;;;;9.48;8.57;;;;;;;;;;2074201;28;20209;-55
2022/05/24 00:34:07;;;;;;;10.32;8.77;;;;;;;;;;2073140;28;20177;-50
2022/05/24 00:35:07;;;;;;;8.65;7.95;;;;;;;;;;2072769;28;20260;-52
2022/05/24 00:36:08;;;;;;;9.52;8.63;;;;;;;;;;2058755;28;20225;-52
2022/05/24 00:37:08;;;;;;;9.88;8.82;;;;;;;;;;2058728;28;20173;-56
2022/05/24 00:38:10;;;;;;;9.82;8.82;;;;;;;;;;2058732;28;20191;-52
2022/05/24 00:39:10;;;;;;;10.57;9.63;;;;;;;;;;2066133;28;20186;-55
2022/05/24 00:40:17;;;;;;;10.30;9.23;;;;;;;;;;2066208;28;20559;-55
2022/05/24 00:41:22;;;;;;;10.27;9.38;;;;;;;;;;2058612;28;20524;-53
2022/05/24 00:42:26;;;;;;;10.30;9.18;;;;;;;;;;2058483;28;20627;-54
2022/05/24 00:43:31;;;;;;;9.73;8.82;;;;;;;;;;2066303;28;20188;-55
2022/05/24 00:44:34;;;;;;;9.90;9.00;;;;;;;;;;2064920;28;20190;-52
2022/05/24 00:45:36;;;;;;;10.25;9.35;;;;;;;;;;2065599;28;20189;-53
2022/05/24 00:46:42;;;;;;;11.70;9.18;;;;;;;;;;2058445;28;20260;-56
2022/05/24 00:47:48;;;;;;;10.77;9.75;;;;;;;;;;2058560;28;20249;-52
2022/05/24 00:48:51;;;;;;;10.00;9.10;;;;;;;;;;2058630;28;20249;-49
2022/05/24 00:49:56;;;;;;;10.13;8.93;;;;;;;;;;2062387;28;20263;-51
2022/05/24 00:50:57;;;;;;;9.30;8.57;;;;;;;;;;2066807;28;20257;-52
2022/05/24 00:52:03;;;;;;;10.38;9.18;;;;;;;;;;2066544;28;20260;-51
2022/05/24 00:53:08;;;;;;;9.95;8.95;;;;;;;;;;2066991;28;20240;-50
2022/05/24 00:54:08;;;;;;;9.70;8.60;;;;;;;;;;2059552;28;20230;-52
2022/05/24 00:55:09;;;;;;;11.35;8.82;;;;;;;;;;2058591;28;20705;-52
2022/05/24 00:56:12;;;;;;;10.63;9.65;;;;;;;;;;2058942;28;20225;-55
2022/05/24 00:57:25;;;;;;;10.43;9.32;;;;;;;;;;2058955;28;20184;-52
2022/05/24 00:58:38;;;;;;;10.65;9.20;;;;;;;;;;2059558;28;20166;-54
2022/05/24 00:59:41;;;;;;;11.43;10.23;;;;;;;;;;2058943;28;20186;-53
2022/05/24 01:00:42;;;;;;;9.90;9.10;;;;;;;;;;2066460;28;20169;-53
2022/05/24 01:01:47;;;;;;;10.00;9.10;;;;;;;;;;2065607;28;20177;-56
2022/05/24 01:02:47;;;;;;;10.18;9.27;;;;;;;;;;2058802;28;20201;-51
2022/05/24 01:03:48;;;;;;;10.18;9.35;;;;;;;;;;2060567;28;20177;-54
2022/05/24 01:04:48;;;;;;;10.52;9.68;;;;;;;;;;2065677;28;20219;-54
2022/05/24 01:05:49;;;;;;;10.43;9.52;;;;;;;;;;2066625;28;20261;-50
2022/05/24 01:06:49;;;;;;;11.27;9.80;;;;;;;;;;2066729;28;20174;-53
2022/05/24 01:07:49;;;;;;;11.05;9.13;;;;;;;;;;2074321;28;20177;-54
2022/05/24 01:08:50;;;;;;;11.07;10.07;;;;;;;;;;2074312;28;20197;-52
2022/05/24 01:09:55;;;;;;;10.15;9.25;;;;;;;;;;2066652;28;20169;-52
2022/05/24 01:10:55;;;;;;;10.30;9.13;;;;;;;;;;2066673;28;20166;-52
2022/05/24 01:11:59;;;;;;;11.55;10.50;;;;;;;;;;2064661;28;20170;-51
2022/05/24 01:13:03;;;;;;;10.70;9.80;;;;;;;;;;2065631;28;20177;-53
2022/05/24 01:14:04;;;;;;;11.18;10.13;;;;;;;;;;2064546;28;20174;-55
2022/05/24 01:15:05;;;;;;;11.40;10.25;;;;;;;;;;2058309;28;20170;-54
2022/05/24 01:16:06;;;;;;;10.35;9.18;;;;;;;;;;2058351;28;20175;-49
2022/05/24 01:17:06;;;;;;;10.50;9.55;;;;;;;;;;2058214;28;20193;-51
2022/05/24 01:18:06;;;;;;;11.13;10.00;;;;;;;;;;2065625;28;20162;-51
2022/05/24 01:19:09;;;;;;;10.45;9.35;;;;;;;;;;2057723;28;20170;-51
2022/05/24 01:20:11;;;;;;;10.32;9.43;;;;;;;;;;2056362;28;20265;-54
2022/05/24 01:21:14;;;;;;;10.30;9.32;;;;;;;;;;2065667;28;20196;-55
2022/05/24 01:22:23;;;;;;;10.50;9.60;;;;;;;;;;2065335;28;20182;-54
2022/05/24 01:23:36;;;;;;;9.30;8.50;;;;;;;;;;2058298;28;20270;-51
2022/05/24 01:24:41;;;;;;;10.32;9.43;;;;;;;;;;2057304;28;20225;-53
2022/05/24 01:26:00;;;;;;;10.73;9.75;;;;;;;;;;2058365;28;20191;-54
2022/05/24 01:27:02;;;;;;;11.60;10.55;;;;;;;;;;2058421;28;20166;-53
2022/05/24 01:28:08;;;;;;;10.77;9.77;;;;;;;;;;2065527;28;20316;-50
2022/05/24 01:29:09;;;;;;;10.23;9.32;;;;;;;;;;2065089;28;20667;-51
2022/05/24 01:30:10;;;;;;;12.07;10.88;;;;;;;;;;2057981;28;20170;-53
2022/05/24 01:31:11;;;;;;;11.55;10.13;;;;;;;;;;2058376;28;20181;-51
2022/05/24 01:36:11;;;;;;;12.18;11.07;;;;;;;;;;2058324;28;20625;-51
2022/05/24 01:37:12;;;;;;;12.60;11.30;;;;;;;;;;2058530;28;20170;-54
2022/05/24 01:38:15;;;;;;;12.23;11.13;;;;;;;;;;2058238;28;20183;-55
2022/05/24 01:39:15;;;;;;;12.77;11.55;;;;;;;;;;2057558;28;20217;-49
2022/05/24 01:40:16;;;;;;;11.90;10.80;;;;;;;;;;2058370;28;20189;-53
2022/05/24 01:41:24;;;;;;;13.27;11.98;;;;;;;;;;2058232;28;20212;-46
2022/05/24 01:42:24;;;;;;;14.63;13.05;;;;;;;;;;2058515;28;20186;-50
2022/05/24 01:43:26;;;;;;;13.55;12.35;;;;;;;;;;2058493;28;20237;-51
2022/05/24 01:44:34;;;;;;;13.88;12.48;;;;;;;;;;2055370;28;20174;-55
2022/05/24 01:45:36;;;;;;;14.15;12.85;;;;;;;;;;2058297;28;20194;-54
2022/05/24 01:46:39;;;;;;;15.73;13.38;;;;;;;;;;2058704;28;20261;-57
2022/05/24 01:47:42;;;;;;;15.18;13.65;;;;;;;;;;2065947;28;20173;-52
2022/05/24 01:48:50;;;;;;;16.45;14.85;;;;;;;;;;2066367;28;20177;-54
2022/05/24 01:49:54;;;;;;;16.13;14.55;;;;;;;;;;2072410;28;20165;-53
2022/05/24 01:50:56;;;;;;;18.90;14.93;;;;;;;;;;2070743;28;20200;-54
2022/05/24 01:52:09;;;;;;;17.38;14.32;;;;;;;;;;2061665;28;20165;-53
2022/05/24 01:53:12;;;;;;;17.65;15.82;;;;;;;;;;2066574;28;20668;-55
2022/05/24 01:54:13;;;;;;;16.38;14.10;;;;;;;;;;2065886;28;20169;-50
2022/05/24 01:55:18;;;;;;;16.15;14.10;;;;;;;;;;2073690;28;20172;-51
2022/05/24 01:56:22;;;;;;;15.98;14.43;;;;;;;;;;2084616;22;20374;-53
2022/05/24 01:57:25;;;;;;;17.05;15.35;;;;;;;;;;2073276;28;20184;-54
2022/05/24 01:58:28;;;;;;;17.30;15.50;;;;;;;;;;2073897;28;20173;-52
2022/05/24 01:59:28;;;;;;;16.67;14.98;;;;;;;;;;2080691;28;20176;-55
2022/05/24 02:00:29;;;;;;;16.60;14.90;;;;;;;;;;2073914;28;20195;-54
2022/05/24 02:01:43;;;;;;;16.08;14.48;;;;;;;;;;2074079;28;20181;-52
2022/05/24 02:02:44;;;;;;;16.25;14.55;;;;;;;;;;2073295;28;20176;-56
2022/05/24 02:03:44;;;;;;;16.13;14.52;;;;;;;;;;2073435;28;20207;-53
2022/05/24 02:04:44;;;;;;;17.05;15.32;;;;;;;;;;2072655;28;20209;-57
2022/05/24 02:05:44;;;;;;;16.83;15.10;;;;;;;;;;2073704;28;20255;-57
2022/05/24 02:06:45;;;;;;;18.80;15.90;;;;;;;;;;2073973;28;20176;-55
2022/05/24 02:07:45;;;;;;;18.13;16.00;;;;;;;;;;2073800;28;20188;-52
2022/05/24 02:08:45;;;;;;;18.20;16.33;;;;;;;;;;2073826;28;20276;-53
2022/05/24 02:09:48;;;;;;;17.50;15.50;;;;;;;;;;2073845;28;20272;-52
2022/05/24 02:10:51;;;;;;;18.85;16.90;;;;;;;;;;2073196;28;20220;-55
2022/05/24 02:11:52;;;;;;;17.90;16.25;;;;;;;;;;2073228;28;20671;-57
2022/05/24 02:12:55;;;;;;;19.92;17.85;;;;;;;;;;2073683;28;20187;-53
2022/05/24 02:14:01;;;;;;;19.63;17.55;;;;;;;;;;2072943;28;20193;-54
2022/05/24 02:15:05;;;;;;;20.65;18.48;;;;;;;;;;2073570;28;20204;-52
2022/05/24 02:16:08;;;;;;;19.17;17.13;;;;;;;;;;2073943;28;20224;-51
2022/05/24 02:17:09;;;;;;;19.85;17.75;;;;;;;;;;2073598;28;20650;-57
2022/05/24 02:18:14;;;;;;;19.70;17.60;;;;;;;;;;2073910;28;20168;-55
2022/05/24 02:19:15;;;;;;;21.58;19.27;;;;;;;;;;2073063;28;20214;-57
2022/05/24 02:20:19;;;;;;;20.50;18.15;;;;;;;;;;2073347;28;20188;-55
2022/05/24 02:21:19;;;;;;;20.17;18.15;;;;;;;;;;2073750;28;20227;-56
2022/05/24 02:22:21;;;;;;;19.60;17.75;;;;;;;;;;2073848;28;20201;-53
2022/05/24 02:23:21;;;;;;;22.17;19.95;;;;;;;;;;2073593;28;20173;-55
2022/05/24 02:24:23;;;;;;;22.48;20.23;;;;;;;;;;2072993;28;20208;-53
2022/05/24 02:25:49;;;;;;;23.52;20.45;;;;;;;;;;2073395;28;20180;-57
2022/05/24 02:26:51;;;;;;;24.08;21.48;;;;;;;;;;2070864;28;20185;-50
2022/05/24 02:27:51;;;;;;;24.38;21.85;;;;;;;;;;2073741;28;20201;-54
2022/05/24 02:28:52;;;;;;;24.90;22.20;;;;;;;;;;2074371;28;20171;-59
2022/05/24 02:29:55;;;;;;;26.35;22.52;;;;;;;;;;2074137;28;20333;-54
2022/05/24 02:30:58;;;;;;;25.52;22.92;;;;;;;;;;2070915;28;20173;-56
2022/05/24 02:31:58;;;;;;;25.67;22.98;;;;;;;;;;2073113;28;20173;-54
2022/05/24 02:32:59;;;;;;;26.42;23.52;;;;;;;;;;2073983;28;20165;-57
2022/05/24 02:34:00;;;;;;;28.65;23.83;;;;;;;;;;2073015;28;20580;-52
2022/05/24 02:35:01;;;;;;;30.48;23.02;;;;;;;;;;2073922;28;20252;-54
2022/05/24 02:36:03;;;;;;;27.58;24.67;;;;;;;;;;2073632;28;20189;-55
2022/05/24 02:37:04;;;;;;;28.23;25.23;;;;;;;;;;2073916;28;20187;-57
2022/05/24 02:38:05;;;;;;;29.42;24.67;;;;;;;;;;2073838;28;20685;-55
2022/05/24 02:39:05;;;;;;;28.67;24.98;;;;;;;;;;2073085;28;20207;-53
2022/05/24 02:41:29;;;;;;;30.00;24.83;;;;;;;;;;2073948;28;20637;-54
2022/05/24 02:42:30;;;;;;;26.95;24.15;;;;;;;;;;2073807;28;20180;-55
2022/05/24 02:43:31;;;;;;;30.25;25.52;;;;;;;;;;2073606;28;20238;-53
2022/05/24 02:44:31;;;;;;;29.98;24.17;;;;;;;;;;2073046;28;20702;-52
2022/05/24 02:45:31;;;;;;;28.40;25.40;;;;;;;;;;2074058;28;20211;-57
2022/05/24 02:46:32;;;;;;;29.17;25.85;;;;;;;;;;2073476;28;20193;-54
2022/05/24 02:47:32;;;;;;;31.05;26.05;;;;;;;;;;2073606;28;20276;-57
2022/05/24 02:48:33;;;;;;;30.05;26.45;;;;;;;;;;2073696;28;20169;-54
2022/05/24 02:49:34;;;;;;;30.58;26.90;;;;;;;;;;2075171;28;20218;-52
2022/05/24 02:50:34;;;;;;;32.15;25.60;;;;;;;;;;2081140;28;20176;-54
2022/05/24 02:51:35;;;;;;;27.45;23.90;;;;;;;;;;2081441;28;20540;-54
2022/05/24 02:52:36;;;;;;;28.15;24.98;;;;;;;;;;2074710;28;20188;-52
2022/05/24 02:53:37;;;;;;;30.40;26.00;;;;;;;;;;2073563;28;20548;-56
2022/05/24 02:54:38;;;;;;;29.23;26.10;;;;;;;;;;2071949;28;20251;-55
2022/05/24 02:55:38;;;;;;;30.45;26.08;;;;;;;;;;2064765;28;20193;-53
2022/05/24 02:56:38;;;;;;;30.83;25.02;;;;;;;;;;2072779;28;20244;-53
2022/05/24 02:57:39;;;;;;;32.22;25.42;;;;;;;;;;2073707;28;20169;-51
2022/05/24 02:58:40;;;;;;;32.65;26.67;;;;;;;;;;2073379;28;20212;-52
2022/05/24 02:59:41;;;;;;;29.27;25.77;;;;;;;;;;2073476;28;20171;-53
2022/05/24 03:00:41;;;;;;;31.70;26.05;;;;;;;;;;2073354;28;20184;-49
2022/05/24 03:01:42;;;;;;;30.75;26.80;;;;;;;;;;2073594;28;20247;-54
2022/05/24 03:02:42;;;;;;;32.88;26.05;;;;;;;;;;2073189;28;20165;-56
2022/05/24 03:03:42;;;;;;;29.80;26.58;;;;;;;;;;2073535;28;20255;-55
2022/05/24 03:04:43;;;;;;;33.45;26.95;;;;;;;;;;2072845;28;20307;-53
2022/05/24 03:05:43;;;;;;;33.05;27.65;;;;;;;;;;2081742;28;20182;-52
2022/05/24 03:09:35;;;;;;;32.03;27.13;;;;;;;;;;2081713;28;20198;-55
2022/05/24 03:10:36;;;;;;;36.22;28.70;;;;;;;;;;2081963;28;20160;-52
2022/05/24 03:14:19;;;;;;;42.30;30.58;;;;;;;;;;2075146;28;20963;-55
2022/05/24 03:15:19;;;;;;;38.90;30.13;;;;;;;;;;2073339;28;20661;-54
2022/05/24 03:16:20;;;;;;;39.38;30.30;;;;;;;;;;2072985;28;20237;-55
2022/05/24 03:17:20;;;;;;;40.25;31.45;;;;;;;;;;2072950;28;20183;-53
2022/05/24 03:18:22;;;;;;;38.95;30.63;;;;;;;;;;2073465;28;20248;-55
2022/05/24 03:19:22;;;;;;;41.53;33.20;;;;;;;;;;2073439;28;20191;-54
2022/05/24 03:20:22;;;;;;;40.78;31.67;;;;;;;;;;2072848;28;20177;-56
2022/05/24 03:21:23;;;;;;;43.78;34.97;;;;;;;;;;2072839;28;20263;-56
2022/05/24 03:22:23;;;;;;;45.65;33.28;;;;;;;;;;2073434;28;20169;-55
2022/05/24 03:23:23;;;;;;;42.72;31.92;;;;;;;;;;2073306;28;20173;-56
2022/05/24 03:24:23;;;;;;;45.55;33.70;;;;;;;;;;2072544;28;20219;-51
2022/05/24 03:25:23;;;;;;;41.88;33.13;;;;;;;;;;2073310;28;20161;-52
2022/05/24 03:26:24;;;;;;;42.90;31.98;;;;;;;;;;2073439;28;20196;-56
2022/05/24 03:27:32;;;;;;;43.75;32.90;;;;;;;;;;2073444;28;20167;-58
2022/05/24 03:28:33;;;;;;;46.13;32.78;;;;;;;;;;2073385;28;20168;-55
2022/05/24 03:29:33;;;;;;;40.25;32.85;;;;;;;;;;2073358;28;20173;-55
2022/05/24 03:30:38;;;;;;;42.88;32.78;;;;;;;;;;2073406;28;20584;-52
2022/05/24 03:31:38;;;;;;;49.28;33.47;;;;;;;;;;2073413;28;20246;-54
2022/05/24 03:32:38;;;;;;;43.03;33.00;;;;;;;;;;2073634;28;20235;-49
2022/05/24 03:33:39;;;;;;;49.50;34.25;;;;;;;;;;2073331;28;20177;-54
2022/05/24 03:34:40;;;;;;;41.20;31.50;;;;;;;;;;2072585;28;20565;-55
2022/05/24 03:35:41;;;;;;;44.67;33.30;;;;;;;;;;2073461;28;20378;-50
2022/05/24 03:36:41;;;;;;;39.40;32.60;;;;;;;;;;2073373;28;20184;-55
2022/05/24 03:37:41;;;;;;;44.67;33.03;;;;;;;;;;2073446;28;20223;-58
2022/05/24 03:38:42;;;;;;;42.60;33.78;;;;;;;;;;2073455;28;20716;-54
2022/05/24 03:39:42;;;;;;;41.05;29.67;;;;;;;;;;2073425;28;20173;-53
2022/05/24 03:40:43;;;;;;;43.00;33.13;;;;;;;;;;2073228;28;20196;-53
2022/05/24 03:41:46;;;;;;;38.05;31.88;;;;;;;;;;2073593;28;20626;-52
2022/05/24 03:42:46;;;;;;;38.33;31.42;;;;;;;;;;2073519;28;20251;-53
2022/05/24 03:43:47;;;;;;;35.42;30.48;;;;;;;;;;2073168;28;20255;-52
2022/05/24 03:44:48;;;;;;;40.42;33.70;;;;;;;;;;2072405;28;20516;-54
2022/05/24 03:45:48;;;;;;;42.65;31.83;;;;;;;;;;2073415;28;20180;-57
2022/05/24 03:46:51;;;;;;;40.35;32.05;;;;;;;;;;2073299;28;20525;-51
2022/05/24 03:47:51;;;;;;;41.05;30.60;;;;;;;;;;2073346;28;20175;-56
2022/05/24 03:48:51;;;;;;;37.53;30.80;;;;;;;;;;2070095;28;20174;-54
2022/05/24 03:49:54;;;;;;;39.35;31.65;;;;;;;;;;2073382;28;20187;-57
2022/05/24 03:50:55;;;;;;;39.22;32.20;;;;;;;;;;2081399;28;20552;-53
2022/05/24 03:51:56;;;;;;;36.75;30.13;;;;;;;;;;2075843;28;20548;-55
2022/05/24 03:52:56;;;;;;;40.88;32.50;;;;;;;;;;2072615;28;20169;-53
2022/05/24 03:53:56;;;;;;;37.22;31.33;;;;;;;;;;2072502;28;20708;-53
2022/05/24 03:55:00;;;;;;;35.67;30.77;;;;;;;;;;2073061;28;20259;-54
2022/05/24 03:56:01;;;;;;;38.20;31.80;;;;;;;;;;2073201;28;20247;-55
2022/05/24 03:58:20;;;;;;;38.03;31.70;;;;;;;;;;2073453;28;20180;-55
2022/05/24 03:59:20;;;;;;;36.40;30.23;;;;;;;;;;2073127;28;20172;-53
2022/05/24 04:00:22;;;;;;;36.50;31.33;;;;;;;;;;2073426;28;20276;-52
2022/05/24 04:01:23;;;;;;;36.72;30.77;;;;;;;;;;2072561;28;20199;-53
2022/05/24 04:02:24;;;;;;;35.83;30.42;;;;;;;;;;2071423;28;20743;-57
2022/05/24 04:03:25;;;;;;;35.95;30.67;;;;;;;;;;2074590;28;20192;-55
2022/05/24 04:04:25;;;;;;;36.83;32.42;;;;;;;;;;2076003;28;20173;-57
2022/05/24 04:05:26;;;;;;;40.72;31.15;;;;;;;;;;2079456;28;20566;-56
2022/05/24 04:06:26;;;;;;;37.17;30.55;;;;;;;;;;2073948;28;20197;-55
2022/05/24 04:07:27;;;;;;;38.13;30.60;;;;;;;;;;2073023;28;20189;-55
2022/05/24 04:08:29;;;;;;;41.00;32.25;;;;;;;;;;2080539;28;20172;-53
2022/05/24 04:09:31;;;;;;;35.63;31.00;;;;;;;;;;2073406;28;20172;-56
2022/05/24 04:10:32;;;;;;;34.90;30.90;;;;;;;;;;2080323;28;20184;-53
2022/05/24 04:11:33;;;;;;;38.30;32.95;;;;;;;;;;2081429;28;20180;-54
2022/05/24 04:12:34;;;;;;;39.40;32.80;;;;;;;;;;2078021;28;20181;-54
2022/05/24 04:13:36;;;;;;;39.80;33.15;;;;;;;;;;2073532;28;20744;-57
2022/05/24 04:14:36;;;;;;;37.45;32.35;;;;;;;;;;2071877;28;20166;-59
2022/05/24 04:15:36;;;;;;;38.67;33.17;;;;;;;;;;2074864;28;20608;-55
2022/05/24 04:16:36;;;;;;;35.60;31.48;;;;;;;;;;2081232;28;20192;-52
2022/05/24 04:17:37;;;;;;;38.03;31.63;;;;;;;;;;2072550;28;20192;-53
2022/05/24 04:18:37;;;;;;;37.47;32.58;;;;;;;;;;2072808;28;20161;-56
2022/05/24 04:19:37;;;;;;;41.08;33.65;;;;;;;;;;2073241;28;20181;-55
2022/05/24 04:20:37;;;;;;;37.53;32.95;;;;;;;;;;2073350;28;20173;-56
2022/05/24 04:21:38;;;;;;;36.90;32.53;;;;;;;;;;2073163;28;20713;-55
2022/05/24 04:22:38;;;;;;;40.78;34.28;;;;;;;;;;2073975;28;20634;-56
2022/05/24 04:23:38;;;;;;;41.53;34.55;;;;;;;;;;2074363;28;20198;-54
2022/05/24 04:24:39;;;;;;;39.60;32.97;;;;;;;;;;2073495;28;20177;-54
2022/05/24 04:25:39;;;;;;;42.72;34.13;;;;;;;;;;2074648;28;20180;-56
2022/05/24 04:26:40;;;;;;;40.25;33.80;;;;;;;;;;2073820;28;20208;-54
2022/05/24 04:27:40;;;;;;;40.42;32.33;;;;;;;;;;2073724;28;20177;-52
2022/05/24 04:28:41;;;;;;;36.88;32.92;;;;;;;;;;2073457;28;20169;-58
2022/05/24 04:29:41;;;;;;;37.97;33.22;;;;;;;;;;2073179;28;20181;-57
2022/05/24 04:30:41;;;;;;;37.70;33.00;;;;;;;;;;2064662;28;20196;-50
2022/05/24 04:31:42;;;;;;;42.80;33.70;;;;;;;;;;2064365;28;20166;-53
2022/05/24 04:32:43;;;;;;;36.90;32.80;;;;;;;;;;2072536;28;20212;-55
2022/05/24 04:33:44;;;;;;;40.33;34.35;;;;;;;;;;2073327;28;20518;-52
2022/05/24 04:34:44;;;;;;;39.28;33.90;;;;;;;;;;2072291;28;20183;-50
2022/05/24 04:35:44;;;;;;;40.63;33.55;;;;;;;;;;2073065;28;20188;-50
2022/05/24 04:36:44;;;;;;;39.58;34.47;;;;;;;;;;2073050;28;20219;-51
2022/05/24 04:37:45;;;;;;;40.70;34.38;;;;;;;;;;2072501;28;20212;-49
2022/05/24 04:38:45;;;;;;;39.63;33.75;;;;;;;;;;2072482;28;20165;-53
2022/05/24 04:39:45;;;;;;;41.50;34.47;;;;;;;;;;2072529;28;20188;-52
2022/05/24 04:42:18;;;;;;;38.47;33.25;;;;;;;;;;2072530;28;20165;-54
2022/05/24 04:43:19;;;;;;;37.97;33.65;;;;;;;;;;2072655;28;20149;-49
2022/05/24 04:44:19;;;;;;;40.85;35.20;;;;;;;;;;2072209;28;20264;-53
2022/05/24 04:45:19;;;;;;;41.05;34.80;;;;;;;;;;2073168;28;20211;-50
2022/05/24 04:46:19;;;;;;;40.28;35.13;;;;;;;;;;2072847;28;20197;-56
2022/05/24 04:47:21;;;;;;;37.58;32.90;;;;;;;;;;2073103;28;20223;-56
2022/05/24 04:48:21;;;;;;;39.10;33.08;;;;;;;;;;2073189;28;20173;-53
2022/05/24 04:49:22;;;;;;;40.25;33.38;;;;;;;;;;2073107;28;20251;-54
2022/05/24 04:50:22;;;;;;;37.95;32.00;;;;;;;;;;2080915;28;20172;-54
2022/05/24 04:51:22;;;;;;;36.78;32.67;;;;;;;;;;2081211;28;20171;-50
2022/05/24 04:52:24;;;;;;;37.15;31.58;;;;;;;;;;2081443;28;20204;-52
2022/05/24 04:53:25;;;;;;;36.28;31.20;;;;;;;;;;2072074;28;20587;-56
2022/05/24 04:54:26;;;;;;;34.38;30.65;;;;;;;;;;2072107;28;20173;-56
2022/05/24 04:55:28;;;;;;;34.88;29.63;;;;;;;;;;2073147;28;20212;-54
2022/05/24 04:56:28;;;;;;;32.35;28.02;;;;;;;;;;2073250;28;20215;-54
2022/05/24 04:57:28;;;;;;;33.60;29.73;;;;;;;;;;2073092;28;20172;-54
2022/05/24 04:58:29;;;;;;;32.58;28.98;;;;;;;;;;2073058;28;20554;-52
2022/05/24 04:59:29;;;;;;;33.50;29.90;;;;;;;;;;2070590;28;20227;-57
2022/05/24 05:00:29;;;;;;;33.03;29.55;;;;;;;;;;2071827;28;20165;-53
2022/05/24 05:01:29;;;;;;;35.80;30.33;;;;;;;;;;2079179;28;20180;-55
2022/05/24 05:02:30;;;;;;;34.63;30.35;;;;;;;;;;2079977;28;20219;-51
2022/05/24 05:03:30;;;;;;;31.23;27.85;;;;;;;;;;2080532;28;20172;-52
2022/05/24 05:04:31;;;;;;;30.33;27.13;;;;;;;;;;2072641;28;20946;-54
2022/05/24 05:05:31;;;;;;;32.72;27.65;;;;;;;;;;2080444;28;20177;-53
2022/05/24 05:06:31;;;;;;;30.02;26.88;;;;;;;;;;2080901;28;20235;-56
2022/05/24 05:07:32;;;;;;;29.90;26.70;;;;;;;;;;2073063;28;20183;-53
2022/05/24 05:08:33;;;;;;;30.88;27.38;;;;;;;;;;2073092;28;20161;-55
2022/05/24 05:09:34;;;;;;;29.13;25.90;;;;;;;;;;2071096;28;20189;-58
2022/05/24 05:10:34;;;;;;;30.13;26.02;;;;;;;;;;2073130;28;20197;-52
2022/05/24 05:11:35;;;;;;;32.42;26.08;;;;;;;;;;2073029;28;20185;-52
2022/05/24 05:12:35;;;;;;;31.15;25.35;;;;;;;;;;2073266;28;20272;-51
2022/05/24 05:13:36;;;;;;;29.05;26.00;;;;;;;;;;2072920;28;20260;-54
2022/05/24 05:14:37;;;;;;;28.00;25.05;;;;;;;;;;2073858;28;20169;-54
2022/05/24 05:15:43;;;;;;;28.63;25.02;;;;;;;;;;2082672;28;20180;-55
2022/05/24 05:16:43;;;;;;;27.95;24.92;;;;;;;;;;2082156;28;20176;-57
2022/05/24 05:17:43;;;;;;;26.67;23.25;;;;;;;;;;2082510;28;20169;-56
2022/05/24 05:18:44;;;;;;;26.02;23.23;;;;;;;;;;2074952;28;20181;-51
2022/05/24 05:19:48;;;;;;;26.75;23.85;;;;;;;;;;2074699;28;20248;-56
2022/05/24 05:20:49;;;;;;;27.50;24.13;;;;;;;;;;2074847;28;20251;-55
2022/05/24 05:21:50;;;;;;;26.00;23.20;;;;;;;;;;2074560;28;20243;-56
2022/05/24 05:22:50;;;;;;;24.83;22.30;;;;;;;;;;2074895;28;20260;-56
2022/05/24 05:23:50;;;;;;;27.08;23.40;;;;;;;;;;2074856;28;20272;-54
2022/05/24 05:24:51;;;;;;;25.25;21.45;;;;;;;;;;2073844;28;20196;-56
2022/05/24 05:25:52;;;;;;;24.38;21.75;;;;;;;;;;2074879;28;20231;-53
2022/05/24 05:26:52;;;;;;;23.02;20.23;;;;;;;;;;2074186;28;20177;-58
2022/05/24 05:27:52;;;;;;;23.98;20.98;;;;;;;;;;2073267;28;20591;-55
2022/05/24 05:28:53;;;;;;;26.48;22.50;;;;;;;;;;2073486;28;20183;-55
2022/05/24 05:31:21;;;;;;;23.15;20.73;;;;;;;;;;2073534;28;20199;-53
2022/05/24 05:32:23;;;;;;;21.80;19.60;;;;;;;;;;2080431;28;20210;-54
2022/05/24 05:33:23;;;;;;;21.50;19.33;;;;;;;;;;2073095;28;20260;-54
2022/05/24 05:34:23;;;;;;;21.40;19.20;;;;;;;;;;2081864;28;20458;-55
2022/05/24 05:35:23;;;;;;;21.45;19.17;;;;;;;;;;2076196;28;20173;-56
2022/05/24 05:36:24;;;;;;;19.85;17.75;;;;;;;;;;2080948;28;20204;-57
2022/05/24 05:37:28;;;;;;;21.40;19.33;;;;;;;;;;2075593;28;20242;-54
2022/05/24 05:38:31;;;;;;;19.23;17.33;;;;;;;;;;2068289;28;20178;-55
2022/05/24 05:39:31;;;;;;;20.35;18.20;;;;;;;;;;2081489;28;20183;-57
2022/05/24 05:40:31;;;;;;;20.83;18.30;;;;;;;;;;2075111;28;20187;-60
2022/05/24 05:41:32;;;;;;;20.50;18.40;;;;;;;;;;2074350;28;20271;-55
2022/05/24 05:42:32;;;;;;;20.13;18.13;;;;;;;;;;2081762;28;20718;-52
2022/05/24 05:43:32;;;;;;;23.23;20.80;;;;;;;;;;2074261;28;20280;-54
2022/05/24 05:44:33;;;;;;;21.73;19.52;;;;;;;;;;2075581;28;20188;-56
2022/05/24 05:45:33;;;;;;;23.50;20.15;;;;;;;;;;2074245;28;20650;-52
2022/05/24 05:46:33;;;;;;;23.60;20.23;;;;;;;;;;2077423;28;20292;-56
2022/05/24 05:47:33;;;;;;;24.55;19.80;;;;;;;;;;2082639;28;20251;-57
2022/05/24 05:48:34;;;;;;;22.33;18.58;;;;;;;;;;2073744;28;20183;-63
2022/05/24 05:49:34;;;;;;;22.67;20.27;;;;;;;;;;2072589;28;20172;-61
2022/05/24 05:50:35;;;;;;;22.25;19.88;;;;;;;;;;2074026;28;20203;-61
2022/05/24 05:51:35;;;;;;;21.27;18.90;;;;;;;;;;2081795;28;20251;-65
2022/05/24 05:52:38;;;;;;;24.63;20.25;;;;;;;;;;2074123;28;20230;-62
2022/05/24 05:53:38;;;;;;;21.92;19.55;;;;;;;;;;2082638;28;20188;-61
2022/05/24 05:54:39;;;;;;;22.88;18.80;;;;;;;;;;2081513;28;20161;-62
2022/05/24 05:55:41;;;;;;;21.33;19.13;;;;;;;;;;2082358;28;20203;-61
2022/05/24 05:56:43;;;;;;;22.60;20.23;;;;;;;;;;2082326;28;20180;-62
2022/05/24 05:57:44;;;;;;;21.85;19.52;;;;;;;;;;2082385;28;20200;-64
2022/05/24 05:58:44;;;;;;;20.80;18.70;;;;;;;;;;2082248;28;20176;-63
2022/05/24 05:59:45;;;;;;;22.92;19.50;;;;;;;;;;2082212;28;20161;-63
2022/05/24 06:00:48;;;;;;;19.55;17.48;;;;;;;;;;2081858;28;20176;-60
2022/05/24 06:01:48;;;;;;;21.60;18.33;;;;;;;;;;2069120;28;20183;-62
2022/05/24 06:02:48;;;;;;;20.40;18.15;;;;;;;;;;2070172;28;20225;-62
2022/05/24 06:03:49;;;;;;;19.77;17.77;;;;;;;;;;2071882;28;20637;-56
2022/05/24 06:04:49;;;;;;;19.48;17.55;;;;;;;;;;2068201;28;20713;-54
2022/05/24 06:05:51;;;;;;;22.10;18.13;;;;;;;;;;2061677;28;20206;-60
2022/05/24 06:06:52;;;;;;;17.95;16.08;;;;;;;;;;2060076;28;20289;-54
2022/05/24 06:07:54;;;;;;;15.98;14.27;;;;;;;;;;2070140;28;20183;-54
2022/05/24 06:08:54;;;;;;;17.45;15.63;;;;;;;;;;2068265;28;20191;-60
2022/05/24 06:09:55;;;;;;;16.23;14.05;;;;;;;;;;2071111;28;20689;-55
2022/05/24 06:10:55;;;;;;;14.90;13.38;;;;;;;;;;2068600;28;20711;-60
2022/05/24 06:11:55;;;;;;;15.45;14.05;;;;;;;;;;2071432;28;20169;-56
2022/05/24 06:12:57;;;;;;;15.60;14.02;;;;;;;;;;2068453;28;20202;-59
2022/05/24 06:13:57;;;;;;;15.65;14.07;;;;;;;;;;2070573;28;20182;-60
2022/05/24 06:14:57;;;;;;;14.25;12.95;;;;;;;;;;2067805;28;20654;-54
2022/05/24 06:16:00;;;;;;;16.20;14.02;;;;;;;;;;2068389;28;20180;-54